»·PEaware :: N10EC KPDX-KSLE

N10EC :: KPDX-KSLE

FLIGHT INFORMATION

Flight Status: Arrived
Operator: Privately registered:
United States
More flights under this callsign
Pilot: Jacob M. (32482)
Aircraft: CESSNA 172 SKYHAWK
(C172)
More flights by this aircraft type
Origin: KPDX Portland Intl
United States
Destination: KSLE McNary
United States
More flights between these airports :: More routes between these airports
Route:
File this flight plan on PilotEdge
Remarks:
Altitude:
(Current/Filed)
8,000ft
Speed:
(Current/Filed)
110kts
Departed: 28-Dec-20 02:24 PM
Arrived: 28-Dec-20 03:01 PM
Distance/Time
Traveled:
1nm/0:37
Distance/Time
To Go:
Arrived

Flight Plot

Page will automatically refresh every two minutes.

Flight plan parsing failed; only flown route is shown


Map Options




Map Legend


Flown Route
Filed Route
Departure Airport
Arrival Airport
Navaid (VOR, NDB)
Fix

Horizontal Profiles

Position Reports

Time Latitude Longitude Heading Altitude Ground
Speed
28-Dec-20 14:09 45.587425 -122.583532 208 20ft 0kts
28-Dec-20 14:10 45.587425 -122.583532 208 20ft 0kts
28-Dec-20 14:11 45.587425 -122.583532 208 20ft 0kts
28-Dec-20 14:12 45.587425 -122.583532 208 20ft 0kts
28-Dec-20 14:13 45.587425 -122.583532 208 20ft 0kts
28-Dec-20 14:14 45.587425 -122.583532 208 20ft 0kts
28-Dec-20 14:15 45.587425 -122.583532 208 20ft 0kts
28-Dec-20 14:16 45.587425 -122.583532 208 20ft 0kts
28-Dec-20 14:17 45.587425 -122.583532 208 20ft 0kts
28-Dec-20 14:18 45.587425 -122.583532 208 20ft 0kts
28-Dec-20 14:19 45.587425 -122.583532 208 20ft 0kts
28-Dec-20 14:20 45.587425 -122.583532 208 20ft 0kts
28-Dec-20 14:21 45.587425 -122.583532 208 20ft 0kts
28-Dec-20 14:22 45.587763 -122.580894 119 20ft 20kts
28-Dec-20 14:23 45.584446 -122.572281 118 20ft 24kts
28-Dec-20 14:24 45.586577 -122.574395 297 54ft 76kts
28-Dec-20 14:24 45.594844 -122.594200 278 1016ft 64kts
28-Dec-20 14:26 45.582311 -122.609328 180 2110ft 78kts
28-Dec-20 14:27 45.561280 -122.615218 204 3078ft 77kts
28-Dec-20 14:27 45.544497 -122.625046 206 3837ft 79kts
28-Dec-20 14:28 45.524089 -122.637272 206 4693ft 81kts
28-Dec-20 14:29 45.503162 -122.649703 206 5503ft 82kts
28-Dec-20 14:30 45.481930 -122.662436 207 6264ft 83kts
28-Dec-20 14:31 45.460462 -122.675325 207 6975ft 84kts
28-Dec-20 14:32 45.438651 -122.688411 207 7645ft 85kts
28-Dec-20 14:33 45.413425 -122.697958 193 7998ft 113kts
28-Dec-20 14:34 45.381914 -122.705495 193 7987ft 112kts
28-Dec-20 14:35 45.351163 -122.712826 193 7983ft 112kts
28-Dec-20 14:36 45.320365 -122.720157 194 7979ft 112kts
28-Dec-20 14:37 45.289405 -122.727518 194 7975ft 113kts
28-Dec-20 14:38 45.255845 -122.735479 193 7974ft 130kts
28-Dec-20 14:39 45.219660 -122.744046 193 7973ft 132kts
28-Dec-20 14:40 45.183193 -122.752681 193 7973ft 133kts
28-Dec-20 14:41 45.146755 -122.761301 193 7973ft 133kts
28-Dec-20 14:42 45.110364 -122.769900 193 7973ft 133kts
28-Dec-20 14:43 45.073199 -122.778685 191 7972ft 137kts
28-Dec-20 14:44 45.034982 -122.787702 189 7971ft 141kts
28-Dec-20 14:45 44.993033 -122.797573 186 7395ft 162kts
28-Dec-20 14:46 44.947887 -122.808169 185 6408ft 165kts
28-Dec-20 14:47 44.902471 -122.818804 186 5415ft 165kts
28-Dec-20 14:48 44.857331 -122.829378 187 4408ft 165kts
28-Dec-20 14:49 44.812092 -122.839957 188 3395ft 164kts
28-Dec-20 14:50 44.769340 -122.849950 189 2994ft 137kts
28-Dec-20 14:51 44.739150 -122.862865 245 2894ft 109kts
28-Dec-20 14:52 44.756763 -122.883803 354 2393ft 109kts
28-Dec-20 14:53 44.784176 -122.900236 333 2102ft 85kts
28-Dec-20 14:54 44.802815 -122.915213 333 2099ft 77kts
28-Dec-20 14:55 44.821619 -122.930343 333 2026ft 83kts
28-Dec-20 14:56 44.841940 -122.946656 334 1623ft 77kts
28-Dec-20 14:57 44.862440 -122.959596 341 1173ft 84kts
28-Dec-20 14:58 44.880656 -122.977944 332 761ft 76kts
28-Dec-20 14:59 44.899291 -122.993348 332 356ft 78kts
28-Dec-20 15:00 44.909137 -123.003185 263 206ft 18kts
28-Dec-20 15:01 44.907297 -123.006611 172 206ft 0kts
28-Dec-20 15:02 44.907297 -123.006611 172 206ft 0kts
28-Dec-20 15:03 44.907297 -123.006611 172 206ft 0kts
28-Dec-20 15:04 44.907297 -123.006611 172 206ft 0kts
28-Dec-20 15:05 44.907297 -123.006611 172 206ft 0kts
28-Dec-20 15:06 44.907297 -123.006611 172 206ft 0kts
28-Dec-20 15:07 44.907297 -123.006611 172 206ft 0kts
28-Dec-20 15:09 44.906487 -123.006393 1 207ft 0kts
28-Dec-20 15:10 45.587425 -122.583532 208 20ft 0kts
28-Dec-20 15:11 45.587425 -122.583532 207 20ft 0kts
28-Dec-20 15:12 45.587425 -122.583532 207 20ft 0kts
28-Dec-20 15:13 45.587425 -122.583532 207 20ft 0kts
28-Dec-20 15:14 45.587425 -122.583532 207 20ft 0kts

Navigation Log

Ident Type
Flight plan parsing failed, navigation log unavailable